Time;durP1;ratioP1;P1;durP2;ratioP2;P2;SDS_P1;SDS_P2;PMS_P1;PMS_P2;Temp;Humidity;BMP_temperature;BMP_pressure;BME280_temperature;BME280_humidity;BME280_pressure;Samples;Min_cycle;Max_cycle;Signal;HPM_P1;HPM_P2
2022/03/30 00:01:29;;;;;;;50.60;19.27;;;5.50;99.90;;;;;;5092935;28;20055;-72
2022/03/30 00:03:55;;;;;;;45.20;20.40;;;5.50;99.90;;;;;;5092922;28;20173;-72
2022/03/30 00:06:20;;;;;;;47.80;20.05;;;5.50;99.90;;;;;;5092936;28;20443;-72
2022/03/30 00:08:46;;;;;;;47.38;19.20;;;5.50;99.90;;;;;;5074948;28;20551;-72
2022/03/30 00:11:12;;;;;;;48.35;20.30;;;5.50;99.90;;;;;;5074917;28;20462;-72
2022/03/30 00:13:40;;;;;;;47.97;20.52;;;5.40;99.90;;;;;;5092979;28;20056;-72
2022/03/30 00:16:07;;;;;;;52.45;19.52;;;5.40;99.90;;;;;;5074901;28;20026;-72
2022/03/30 00:18:33;;;;;;;49.92;20.88;;;5.40;99.90;;;;;;5092748;28;20382;-72
2022/03/30 00:20:59;;;;;;;48.13;19.98;;;5.40;99.90;;;;;;5091496;28;20032;-72
2022/03/30 00:23:25;;;;;;;43.95;19.48;;;5.40;99.90;;;;;;5071093;28;20059;-71
2022/03/30 00:25:51;;;;;;;46.53;17.40;;;5.40;99.90;;;;;;5054651;28;20036;-72
2022/03/30 00:28:16;;;;;;;49.97;20.35;;;5.40;99.90;;;;;;5071422;28;20103;-71
2022/03/30 00:30:42;;;;;;;45.15;17.95;;;5.40;99.90;;;;;;5072656;28;20024;-71
2022/03/30 00:33:08;;;;;;;45.13;18.52;;;5.40;99.90;;;;;;5075012;28;20025;-72
2022/03/30 00:35:34;;;;;;;47.30;18.35;;;5.30;99.90;;;;;;5074849;28;20521;-72
2022/03/30 00:38:00;;;;;;;55.83;20.00;;;5.20;99.90;;;;;;5058399;28;20162;-71
2022/03/30 00:40:26;;;;;;;50.03;19.65;;;5.10;99.90;;;;;;5058105;28;20107;-71
2022/03/30 00:42:51;;;;;;;50.70;20.80;;;5.20;99.90;;;;;;5058034;28;20017;-72
2022/03/30 00:45:21;;;;;;;40.33;17.80;;;5.20;99.90;;;;;;5057915;28;20059;-71
2022/03/30 00:47:47;;;;;;;51.78;21.13;;;5.20;99.90;;;;;;5075900;28;20024;-72
2022/03/30 00:50:16;;;;;;;53.67;20.10;;;5.20;99.90;;;;;;5074745;28;20458;-72
2022/03/30 00:52:43;;;;;;;52.28;20.92;;;5.10;99.90;;;;;;5075761;28;20052;-72
2022/03/30 00:55:09;;;;;;;46.45;20.15;;;5.10;99.90;;;;;;5075873;28;20028;-72
2022/03/30 00:57:36;;;;;;;52.97;21.35;;;5.10;99.90;;;;;;5075652;28;20104;-72
2022/03/30 01:00:05;;;;;;;54.65;21.63;;;5.00;99.90;;;;;;5075528;28;20028;-72
2022/03/30 01:02:31;;;;;;;49.72;20.73;;;4.90;99.90;;;;;;5074250;28;20029;-72
2022/03/30 01:04:56;;;;;;;47.30;21.48;;;5.00;99.90;;;;;;5075469;28;20052;-72
2022/03/30 01:07:22;;;;;;;45.72;20.45;;;5.00;99.90;;;;;;5074186;28;20066;-72
2022/03/30 01:09:47;;;;;;;48.30;20.65;;;5.00;99.90;;;;;;5074300;28;20475;-72
2022/03/30 01:12:14;;;;;;;54.15;21.92;;;4.90;99.90;;;;;;5057473;28;20486;-72
2022/03/30 01:14:39;;;;;;;51.60;21.63;;;4.90;99.90;;;;;;5074185;28;20544;-72
2022/03/30 01:17:05;;;;;;;47.72;20.38;;;5.00;99.90;;;;;;5074144;28;20020;-72
2022/03/30 01:19:34;;;;;;;55.03;21.05;;;5.00;99.90;;;;;;5074070;28;20021;-72
2022/03/30 01:21:59;;;;;;;45.35;20.75;;;5.00;99.90;;;;;;5075243;28;20036;-72
2022/03/30 01:24:26;;;;;;;56.30;23.17;;;5.00;99.90;;;;;;5089646;28;20048;-72
2022/03/30 01:26:52;;;;;;;46.08;19.95;;;5.00;99.90;;;;;;5095364;28;20027;-72
2022/03/30 01:32:36;;;;;;;48.88;21.98;;;5.00;99.90;;;;;;5095249;28;20028;-71
2022/03/30 01:34:50;;;;;;;50.15;21.02;;;5.00;99.90;;;;;;5095062;28;20027;-71
2022/03/30 01:37:16;;;;;;;53.85;21.17;;;4.90;99.90;;;;;;5095195;28;20595;-71
2022/03/30 01:39:42;;;;;;;50.10;21.67;;;4.90;99.90;;;;;;5095169;28;20055;-71
2022/03/30 01:42:08;;;;;;;56.47;23.05;;;4.90;99.90;;;;;;5093785;28;20073;-71
2022/03/30 01:44:34;;;;;;;50.83;21.95;;;4.80;99.90;;;;;;5094919;28;20024;-71
2022/03/30 01:47:00;;;;;;;54.28;22.02;;;4.90;99.90;;;;;;5060115;28;20024;-71
2022/03/30 01:49:26;;;;;;;54.42;21.30;;;4.90;99.90;;;;;;5094948;28;20021;-71
2022/03/30 01:51:54;;;;;;;52.03;22.38;;;4.90;99.90;;;;;;5094967;28;20024;-71
2022/03/30 01:54:22;;;;;;;51.67;20.30;;;4.80;99.90;;;;;;5094894;28;20034;-71
2022/03/30 01:56:49;;;;;;;54.08;22.08;;;4.80;99.90;;;;;;5094934;28;20456;-71
2022/03/30 01:59:15;;;;;;;51.35;22.13;;;4.80;99.90;;;;;;5076816;28;20394;-71
2022/03/30 02:01:41;;;;;;;51.20;21.48;;;4.80;99.90;;;;;;5094714;28;20025;-72
2022/03/30 02:04:07;;;;;;;53.67;21.73;;;4.80;99.90;;;;;;5094552;28;20024;-71
2022/03/30 02:06:34;;;;;;;49.17;21.92;;;4.70;99.90;;;;;;5094572;28;20040;-71
2022/03/30 02:09:00;;;;;;;53.50;21.45;;;4.70;99.90;;;;;;5093269;28;20439;-72
2022/03/30 02:11:26;;;;;;;60.22;22.08;;;;;;;;;;5076425;28;20107;-72
2022/03/30 02:13:53;;;;;;;54.72;22.63;;;;;;;;;;5094502;28;20055;-71
2022/03/30 02:16:19;;;;;;;45.40;20.67;;;;;;;;;;5093054;28;20545;-72
2022/03/30 02:18:45;;;;;;;56.97;22.52;;;;;;;;;;5093086;28;20371;-72
2022/03/30 02:21:11;;;;;;;54.53;22.80;;;;;;;;;;5094275;28;20039;-72
2022/03/30 02:23:39;;;;;;;49.45;21.58;;;;;;;;;;5093945;28;20462;-72
2022/03/30 02:26:05;;;;;;;54.20;21.63;;;;;;;;;;5092895;28;20502;-72
2022/03/30 02:28:31;;;;;;;55.45;22.10;;;;;;;;;;5094118;28;20027;-72
2022/03/30 02:30:57;;;;;;;57.10;23.60;;;;;;;;;;5094079;28;20062;-72
2022/03/30 02:33:23;;;;;;;64.00;23.08;;;;;;;;;;5094115;28;20012;-72
2022/03/30 02:35:49;;;;;;;55.72;22.55;;;;;;;;;;5094040;28;20393;-72
2022/03/30 02:38:15;;;;;;;51.50;22.42;;;;;;;;;;5092686;28;20045;-72
2022/03/30 02:40:41;;;;;;;53.72;24.45;;;;;;;;;;5093988;28;20024;-72
2022/03/30 02:43:09;;;;;;;56.50;24.08;;;;;;;;;;5075998;28;20366;-72
2022/03/30 02:45:35;;;;;;;52.72;22.38;;;;;;;;;;5093827;28;20016;-72
2022/03/30 02:48:33;;;;;;;47.15;21.42;;;;;;;;;;5093694;28;20062;-72
2022/03/30 02:50:48;;;;;;;52.13;22.40;;;;;;;;;;5093610;28;20390;-72
2022/03/30 02:53:14;;;;;;;53.10;22.58;;;;;;;;;;5092378;28;20047;-72
2022/03/30 02:55:40;;;;;;;57.33;24.73;;;;;;;;;;5093420;28;20031;-72
2022/03/30 02:58:06;;;;;;;60.47;22.80;;;;;;;;;;5093664;28;20479;-72
2022/03/30 03:00:32;;;;;;;60.33;23.15;;;;;;;;;;5093597;28;20427;-72
2022/03/30 03:03:00;;;;;;;53.50;22.55;;;;;;;;;;5075695;28;20107;-72
2022/03/30 03:05:31;;;;;;;50.58;22.98;;;;;;;;;;5093457;28;20024;-72
2022/03/30 03:07:57;;;;;;;57.63;22.40;;;;;;;;;;5093465;28;20020;-72
2022/03/30 03:10:23;;;;;;;56.75;23.83;;;;;;;;;;5092155;28;20016;-72
2022/03/30 03:12:49;;;;;;;53.65;21.00;;;;;;;;;;5093424;28;20035;-72
2022/03/30 03:15:15;;;;;;;53.53;21.73;;;;;;;;;;5075500;28;20103;-72
2022/03/30 03:17:41;;;;;;;56.10;22.02;;;;;;;;;;5092222;28;20055;-72
2022/03/30 03:20:07;;;;;;;54.78;23.38;;;;;;;;;;5092027;28;20028;-72
2022/03/30 03:22:33;;;;;;;56.25;22.88;;;;;;;;;;5058584;28;20127;-72
2022/03/30 03:24:59;;;;;;;53.15;23.02;;;;;;;;;;5093057;28;20485;-72
2022/03/30 03:27:25;;;;;;;50.28;21.95;;;;;;;;;;5075379;28;20078;-72
2022/03/30 03:29:51;;;;;;;48.90;23.55;;;;;;;;;;5093300;28;20099;-72
2022/03/30 03:32:17;;;;;;;49.03;22.20;;;;;;;;;;5091903;28;20517;-72
2022/03/30 03:34:43;;;;;;;57.45;22.63;;;;;;;;;;5075350;28;20106;-72
2022/03/30 03:37:09;;;;;;;51.15;22.88;;;;;;;;;;5093120;28;20113;-72
2022/03/30 03:39:35;;;;;;;61.97;25.42;;;;;;;;;;5091880;28;20085;-72
2022/03/30 03:42:01;;;;;;;57.47;23.40;;;;;;;;;;5093116;28;20089;-72
2022/03/30 03:44:26;;;;;;;49.88;21.63;;;;;;;;;;5075204;28;20390;-72
2022/03/30 03:46:54;;;;;;;47.75;22.95;;;;;;;;;;5091840;28;20386;-72
2022/03/30 03:49:20;;;;;;;54.08;22.95;;;;;;;;;;5093076;28;20043;-72
2022/03/30 03:51:46;;;;;;;56.92;23.20;;;;;;;;;;5075183;28;20074;-72
2022/03/30 03:54:12;;;;;;;56.50;23.75;;;;;;;;;;5075178;28;20024;-72
2022/03/30 03:56:38;;;;;;;56.78;23.20;;;;;;;;;;5092966;28;20390;-72
2022/03/30 03:59:04;;;;;;;52.65;22.48;;;;;;;;;;5091727;28;20470;-72
2022/03/30 04:01:30;;;;;;;53.60;24.63;;;;;;;;;;5092929;28;20028;-72
2022/03/30 04:03:56;;;;;;;51.40;22.35;;;;;;;;;;5092805;28;20076;-72
2022/03/30 04:06:22;;;;;;;54.67;22.90;;;;;;;;;;5092948;28;20031;-72
2022/03/30 04:08:49;;;;;;;60.15;24.55;;;;;;;;;;5078922;28;20016;-72
2022/03/30 04:11:15;;;;;;;58.22;23.10;;;;;;;;;;5095546;28;20170;-72
2022/03/30 04:13:41;;;;;;;62.60;24.85;;;;;;;;;;5096786;28;20037;-72
2022/03/30 04:16:07;;;;;;;60.83;24.55;;;;;;;;;;5096730;28;20474;-72
2022/03/30 04:18:33;;;;;;;61.25;24.15;;;;;;;;;;5096593;28;20020;-72
2022/03/30 04:20:59;;;;;;;59.83;23.90;;;;;;;;;;5095657;28;20055;-72
2022/03/30 04:23:25;;;;;;;56.60;23.35;;;;;;;;;;5096290;28;20525;-72
2022/03/30 04:25:51;;;;;;;55.95;23.40;;;;;;;;;;5096512;28;20032;-72
2022/03/30 04:28:17;;;;;;;59.15;22.70;;;;;;;;;;5096485;28;20074;-72
2022/03/30 04:30:44;;;;;;;52.92;23.80;;;;;;;;;;5078604;28;20012;-72
2022/03/30 04:33:10;;;;;;;58.53;23.25;;;;;;;;;;5096347;28;20084;-72
2022/03/30 04:35:37;;;;;;;56.10;22.92;;;;;;;;;;5095054;28;20017;-72
2022/03/30 04:38:03;;;;;;;65.15;24.73;;;;;;;;;;5061543;28;20485;-72
2022/03/30 04:40:30;;;;;;;54.08;23.40;;;;;;;;;;5096277;28;20023;-72
2022/03/30 04:42:56;;;;;;;54.97;23.80;;;;;;;;;;5078261;28;20490;-72
2022/03/30 04:45:22;;;;;;;49.78;21.85;;;;;;;;;;5096226;28;20036;-72
2022/03/30 04:47:49;;;;;;;63.05;24.73;;;;;;;;;;5096071;28;20024;-72
2022/03/30 04:50:15;;;;;;;58.90;24.42;;;;;;;;;;5096121;28;20118;-72
2022/03/30 04:52:41;;;;;;;53.85;24.42;;;;;;;;;;5094731;28;20036;-72
2022/03/30 04:55:08;;;;;;;63.25;26.63;;;;;;;;;;5095932;28;20024;-72
2022/03/30 04:57:34;;;;;;;59.55;24.75;;;;;;;;;;5095880;28;20110;-71
2022/03/30 05:00:00;;;;;;;59.67;24.83;;;;;;;;;;5095818;28;20028;-72
2022/03/30 05:02:26;;;;;;;56.33;23.73;;;;;;;;;;5095834;28;20390;-71
2022/03/30 05:04:53;;;;;;;59.90;24.60;;;;;;;;;;5095652;28;20028;-71
2022/03/30 05:07:19;;;;;;;57.00;23.65;;;;;;;;;;5061002;28;20024;-71
2022/03/30 05:09:45;;;;;;;53.65;24.48;;;;;;;;;;5095703;28;20028;-71
2022/03/30 05:12:11;;;;;;;60.45;24.25;;;;;;;;;;5095675;28;20038;-71
2022/03/30 05:14:37;;;;;;;58.35;22.95;;;;;;;;;;5095555;28;20050;-71
2022/03/30 05:17:04;;;;;;;55.22;22.27;;;;;;;;;;5095157;28;20475;-72
2022/03/30 05:19:30;;;;;;;63.33;22.92;;;;;;;;;;5095484;28;20032;-71
2022/03/30 05:21:56;;;;;;;66.45;24.75;;;;;;;;;;5095435;28;20561;-71
2022/03/30 05:24:22;;;;;;;56.35;23.67;;;;;;;;;;5093789;28;20485;-71
2022/03/30 05:26:48;;;;;;;62.28;24.55;;;;;;;;;;5077370;28;20020;-72
2022/03/30 05:29:14;;;;;;;53.78;23.20;;;;;;;;;;5095330;28;20099;-72
2022/03/30 05:31:40;;;;;;;53.25;21.92;;;;;;;;;;5093955;28;20059;-72
2022/03/30 05:34:06;;;;;;;55.08;23.85;;;;;;;;;;5093909;28;20046;-72
2022/03/30 05:36:32;;;;;;;58.63;22.88;;;;;;;;;;5095144;28;20077;-71
2022/03/30 05:38:58;;;;;;;59.95;22.88;;;;;;;;;;5077154;28;20474;-72
2022/03/30 05:41:24;;;;;;;58.03;23.92;;;;;;;;;;5093674;28;20016;-72
2022/03/30 05:43:50;;;;;;;53.90;23.40;;;;;;;;;;5094904;28;20060;-72
2022/03/30 05:46:16;;;;;;;58.40;22.85;;;;;;;;;;5093661;28;20063;-72
2022/03/30 05:48:42;;;;;;;54.15;22.30;;;;;;;;;;5094856;28;20027;-72
2022/03/30 05:51:08;;;;;;;58.55;22.85;;;;;;;;;;5060015;28;20417;-72
2022/03/30 05:53:34;;;;;;;51.08;21.15;;;;;;;;;;5094724;28;20077;-72
2022/03/30 05:56:00;;;;;;;47.90;22.30;;;;;;;;;;5094679;28;20024;-72
2022/03/30 05:58:26;;;;;;;49.13;21.15;;;;;;;;;;5094572;28;20489;-72
2022/03/30 06:00:52;;;;;;;51.55;21.25;;;;;;;;;;5076527;28;20031;-72
2022/03/30 06:03:18;;;;;;;48.20;21.10;;;;;;;;;;5094552;28;20020;-71
2022/03/30 06:05:44;;;;;;;43.17;19.40;;;;;;;;;;5094466;28;20050;-71
2022/03/30 06:08:09;;;;;;;46.30;20.48;;;;;;;;;;5094386;28;20478;-72
2022/03/30 06:10:36;;;;;;;47.80;20.23;;;;;;;;;;5094426;28;20022;-72
2022/03/30 06:13:02;;;;;;;41.08;18.85;;;;;;;;;;5094101;28;20031;-72
2022/03/30 06:15:29;;;;;;;44.38;20.73;;;;;;;;;;5094184;28;20481;-72
2022/03/30 06:17:55;;;;;;;45.70;20.90;;;;;;;;;;5094184;28;20390;-72
2022/03/30 06:20:22;;;;;;;43.13;20.98;;;;;;;;;;5094165;28;20049;-72
2022/03/30 06:22:48;;;;;;;40.28;18.10;;;;;;;;;;5092859;28;20032;-73
2022/03/30 06:25:14;;;;;;;41.67;19.08;;;;;;;;;;5075772;28;20033;-72
2022/03/30 06:27:40;;;;;;;39.38;17.83;;;;;;;;;;5075662;28;20027;-72
2022/03/30 06:30:07;;;;;;;36.38;17.42;;;;;;;;;;5093182;28;20024;-72
2022/03/30 06:32:35;;;;;;;35.65;16.52;;;;;;;;;;5093374;28;20032;-73
2022/03/30 06:35:00;;;;;;;36.88;15.18;;;;;;;;;;5075251;28;20084;-75
2022/03/30 06:37:26;;;;;;;35.03;16.75;;;;;;;;;;5075795;28;20039;-75
2022/03/30 06:39:52;;;;;;;32.63;15.20;;;;;;;;;;5093389;28;20027;-75
2022/03/30 06:42:18;;;;;;;29.08;15.95;;;;;;;;;;5093770;28;20032;-75
2022/03/30 06:44:44;;;;;;;27.50;15.50;;;;;;;;;;5093511;28;20028;-75
2022/03/30 06:47:10;;;;;;;35.85;16.58;;;8.60;99.90;;;;;;5093211;28;20026;-75
2022/03/30 06:49:37;;;;;;;29.50;15.75;;;9.00;99.90;;;;;;5075447;28;20427;-76
2022/03/30 06:52:04;;;;;;;26.02;14.43;;;8.70;99.90;;;;;;5074908;28;20072;-75
2022/03/30 06:54:30;;;;;;;36.50;15.20;;;8.80;99.90;;;;;;5074461;28;20016;-75
2022/03/30 06:56:56;;;;;;;32.67;15.20;;;8.90;99.90;;;;;;5092412;28;20027;-76
2022/03/30 06:59:21;;;;;;;32.88;15.75;;;8.50;99.90;;;;;;5092649;28;20073;-74
2022/03/30 07:01:47;;;;;;;30.50;14.40;;;8.30;99.90;;;;;;5093823;28;20028;-74
2022/03/30 07:04:13;;;;;;;29.90;15.32;;;7.80;99.90;;;;;;5093535;28;20046;-74
2022/03/30 07:10:15;;;;;;;27.65;15.40;;;8.30;99.90;;;;;;5061585;28;20051;-63
2022/03/30 07:12:09;;;;;;;28.50;15.48;;;8.20;99.90;;;;;;5092640;28;20074;-63
2022/03/30 07:14:35;;;;;;;30.48;15.45;;;8.30;99.90;;;;;;5092417;28;20067;-62
2022/03/30 07:17:00;;;;;;;29.80;15.32;;;8.90;99.90;;;;;;5074286;28;20023;-62
2022/03/30 07:19:34;;;;;;;27.98;14.20;;;7.90;99.90;;;;;;5092707;28;20397;-62
2022/03/30 07:21:59;;;;;;;37.83;16.98;;;6.60;99.90;;;;;;5092490;28;20042;-63
2022/03/30 07:24:25;;;;;;;36.33;17.00;;;6.60;99.90;;;;;;5092296;28;20043;-72
2022/03/30 07:26:51;;;;;;;34.50;16.77;;;6.80;99.90;;;;;;5093251;28;20035;-72
2022/03/30 07:29:16;;;;;;;32.70;16.77;;;7.40;99.90;;;;;;5060192;28;20016;-72
2022/03/30 07:31:43;;;;;;;32.10;16.13;;;7.50;99.90;;;;;;5077758;28;20119;-73
2022/03/30 07:34:09;;;;;;;37.65;16.77;;;7.00;99.90;;;;;;5074454;28;20859;-72
2022/03/30 07:36:34;;;;;;;33.85;17.15;;;7.20;99.90;;;;;;5094970;28;20031;-72
2022/03/30 07:39:00;;;;;;;38.50;17.88;;;7.40;99.90;;;;;;5074496;28;20024;-74
2022/03/30 07:41:26;;;;;;;38.20;16.92;;;7.10;99.90;;;;;;5085646;28;20103;-72
2022/03/30 07:43:51;;;;;;;35.67;17.05;;;8.00;99.90;;;;;;5095697;28;20046;-74
2022/03/30 07:46:18;;;;;;;35.72;16.77;;;8.90;99.90;;;;;;5096598;28;20059;-73
2022/03/30 07:48:43;;;;;;;28.67;15.60;;;9.70;99.90;;;;;;5067081;28;20398;-73
2022/03/30 07:51:09;;;;;;;34.22;15.88;;;10.60;99.90;;;;;;5095948;28;20031;-73
2022/03/30 07:53:34;;;;;;;26.45;14.93;;;10.40;99.90;;;;;;5077509;28;20020;-73
2022/03/30 07:56:00;;;;;;;28.30;15.55;;;11.90;99.90;;;;;;5095413;28;20103;-75
2022/03/30 07:58:26;;;;;;;26.80;15.23;;;12.60;99.90;;;;;;5077274;28;20165;-74
2022/03/30 08:00:51;;;;;;;29.33;15.13;;;13.80;99.90;;;;;;5096055;28;20032;-71
2022/03/30 08:03:17;;;;;;;29.35;16.48;;;14.50;99.90;;;;;;5094653;28;20448;-73
2022/03/30 08:05:43;;;;;;;30.77;16.27;;;14.60;98.10;;;;;;5078178;28;20028;-73
2022/03/30 08:08:08;;;;;;;30.17;17.05;;;13.90;98.30;;;;;;5077697;28;20419;-72
2022/03/30 08:10:35;;;;;;;28.13;15.48;;;14.50;98.50;;;;;;5068182;28;20053;-73
2022/03/30 08:13:02;;;;;;;29.17;14.80;;;14.60;98.80;;;;;;5060574;28;20597;-74
2022/03/30 08:15:28;;;;;;;26.13;15.82;;;14.10;98.10;;;;;;5046698;28;20032;-73
2022/03/30 08:17:54;;;;;;;25.20;15.55;;;14.30;97.00;;;;;;5053876;28;20524;-73
2022/03/30 08:23:07;;;;;;;28.42;15.98;;;13.50;99.80;;;;;;5029289;28;20044;-73
2022/03/30 08:25:34;;;;;;;26.27;13.95;;;14.00;99.70;;;;;;5026039;28;20599;-74
2022/03/30 08:28:00;;;;;;;30.67;15.35;;;13.40;98.80;;;;;;4996972;28;20541;-73
2022/03/30 08:30:26;;;;;;;31.23;15.52;;;12.70;99.90;;;;;;5081582;28;20111;-72
2022/03/30 08:32:51;;;;;;;24.85;15.35;;;13.00;99.90;;;;;;5079882;28;20023;-73
2022/03/30 08:35:17;;;;;;;24.25;15.25;;;12.20;99.90;;;;;;5095000;28;20089;-73
2022/03/30 08:37:42;;;;;;;27.20;15.65;;;12.50;99.90;;;;;;5086009;28;20046;-72
2022/03/30 08:40:08;;;;;;;25.67;15.32;;;12.70;99.90;;;;;;5076131;28;20024;-73
2022/03/30 08:42:35;;;;;;;28.10;14.15;;;12.60;99.90;;;;;;5077311;28;20399;-73
2022/03/30 08:45:03;;;;;;;25.55;14.65;;;12.70;99.90;;;;;;5077390;28;20038;-74
2022/03/30 08:47:30;;;;;;;28.33;14.60;;;11.90;99.90;;;;;;5076280;28;20119;-73
2022/03/30 08:49:56;;;;;;;23.52;14.73;;;13.20;99.90;;;;;;5110834;28;20390;-74
2022/03/30 08:52:22;;;;;;;28.73;15.30;;;12.40;99.90;;;;;;5076693;28;20024;-75
2022/03/30 08:54:50;;;;;;;36.92;15.10;;;12.40;99.90;;;;;;5076741;28;20024;-74
2022/03/30 08:57:16;;;;;;;28.98;15.20;;;12.90;99.90;;;;;;5066033;28;20489;-76
2022/03/30 09:00:13;;;;;;;27.55;14.15;;;13.50;99.90;;;;;;5083038;28;20024;-74
2022/03/30 09:02:42;;;;;;;26.77;13.68;;;13.80;99.90;;;;;;5076969;28;20478;-63
2022/03/30 09:05:25;;;;;;;23.85;12.10;;;13.20;99.90;;;;;;5076634;28;20062;-64
2022/03/30 09:07:54;;;;;;;25.08;13.00;;;13.60;99.90;;;;;;5092692;28;20028;-63
2022/03/30 09:10:22;;;;;;;22.50;13.15;;;13.80;99.10;;;;;;5093861;28;20427;-64
2022/03/30 09:12:50;;;;;;;27.60;13.57;;;13.00;99.90;;;;;;5094547;28;20058;-64
2022/03/30 09:15:16;;;;;;;22.70;13.02;;;13.40;99.90;;;;;;5094600;28;20038;-64
2022/03/30 09:17:43;;;;;;;21.70;12.63;;;13.70;99.90;;;;;;5095174;28;20024;-66
2022/03/30 09:20:16;;;;;;;26.45;12.18;;;14.40;99.00;;;;;;5094636;28;20020;-65
2022/03/30 09:22:48;;;;;;;24.45;12.88;;;14.30;97.90;;;;;;5091974;28;20426;-65
2022/03/30 09:25:15;;;;;;;28.25;12.40;;;14.80;97.00;;;;;;5094498;28;20055;-64
2022/03/30 09:27:42;;;;;;;23.27;12.70;;;14.50;96.00;;;;;;5094794;28;20553;-65
2022/03/30 09:30:10;;;;;;;23.45;12.23;;;14.20;96.60;;;;;;5084923;28;20028;-64
2022/03/30 09:32:37;;;;;;;27.30;13.20;;;14.40;96.80;;;;;;5094302;28;20412;-63
2022/03/30 09:35:03;;;;;;;20.92;12.65;;;15.30;94.20;;;;;;5093912;28;20028;-64
2022/03/30 09:37:28;;;;;;;24.15;12.07;;;15.20;94.10;;;;;;5094509;28;20077;-64
2022/03/30 09:39:54;;;;;;;24.35;12.40;;;15.60;94.80;;;;;;5094963;28;20392;-65
2022/03/30 09:42:20;;;;;;;26.50;13.38;;;15.10;92.10;;;;;;5075783;28;20043;-71
2022/03/30 09:44:52;;;;;;;22.45;12.35;;;14.90;94.30;;;;;;5075701;28;20043;-73
2022/03/30 09:47:19;;;;;;;26.60;12.98;;;15.80;92.90;;;;;;5059949;28;20490;-73
2022/03/30 09:49:47;;;;;;;22.17;12.48;;;16.10;90.80;;;;;;5094322;28;20489;-73
2022/03/30 09:52:30;;;;;;;21.00;11.38;;;15.50;90.20;;;;;;5076157;28;20031;-74
2022/03/30 10:00:14;;;;;;;18.67;11.13;;;15.00;92.10;;;;;;5109902;27;20374;-73
2022/03/30 10:02:42;;;;;;;20.10;10.90;;;15.40;92.50;;;;;;5097985;28;20032;-74
2022/03/30 10:05:11;;;;;;;16.98;10.20;;;14.50;91.70;;;;;;5104268;28;20074;-73
2022/03/30 10:07:38;;;;;;;17.75;11.07;;;15.30;91.10;;;;;;5107069;28;20035;-74
2022/03/30 10:10:06;;;;;;;16.77;9.93;;;15.10;91.70;;;;;;5095425;28;20082;-73
2022/03/30 10:12:32;;;;;;;16.45;9.40;;;15.80;89.30;;;;;;5098599;28;20054;-73
2022/03/30 10:14:57;;;;;;;20.92;9.85;;;14.40;89.80;;;;;;5094243;28;20389;-74
2022/03/30 10:17:25;;;;;;;16.85;9.85;;;14.20;92.70;;;;;;5104935;28;20028;-72
2022/03/30 10:19:52;;;;;;;17.67;9.93;;;14.10;90.80;;;;;;5091568;28;20028;-78
2022/03/30 10:22:58;;;;;;;16.92;9.55;;;14.60;91.30;;;;;;5078777;28;20032;-73
2022/03/30 10:25:43;;;;;;;19.88;9.20;;;13.40;92.40;;;;;;5099031;28;20036;-73
2022/03/30 10:28:31;;;;;;;20.35;10.60;;;13.20;94.40;;;;;;5090800;28;20024;-72
2022/03/30 10:30:58;;;;;;;21.73;10.55;;;13.70;94.50;;;;;;5099876;28;20024;-73
2022/03/30 10:33:34;;;;;;;17.10;9.85;;;13.70;93.50;;;;;;5092140;28;20032;-73
2022/03/30 10:36:21;;;;;;;20.15;9.95;;;14.10;93.80;;;;;;5071712;28;20032;-73
2022/03/30 10:39:16;;;;;;;19.00;9.93;;;14.50;93.80;;;;;;5088448;28;20024;-74
2022/03/30 10:42:04;;;;;;;16.63;8.73;;;15.00;91.00;;;;;;5102291;28;20036;-74
2022/03/30 10:44:37;;;;;;;14.27;9.05;;;13.80;92.60;;;;;;5091435;28;20026;-74
2022/03/30 10:47:08;;;;;;;16.88;9.40;;;13.70;93.40;;;;;;5091027;28;20029;-74
2022/03/30 10:49:55;;;;;;;18.80;10.10;;;13.80;93.10;;;;;;5088682;28;20123;-73
2022/03/30 10:52:42;;;;;;;18.70;9.13;;;12.30;96.00;;;;;;5092733;28;20058;-74
2022/03/30 11:00:44;;;;;;;14.45;8.57;;;13.10;96.10;;;;;;5110120;27;20311;-73
2022/03/30 11:03:13;;;;;;;15.05;8.57;;;15.70;88.70;;;;;;5108933;28;20224;-74
2022/03/30 11:05:44;;;;;;;16.80;8.57;;;16.30;87.70;;;;;;5102381;28;20024;-74
2022/03/30 11:11:39;;;;;;;14.50;8.60;;;14.10;89.20;;;;;;5109190;27;20424;-73
2022/03/30 11:14:25;;;;;;;15.18;9.23;;;13.60;91.60;;;;;;5090477;28;20029;-73
2022/03/30 11:16:54;;;;;;;16.65;9.40;;;13.20;92.10;;;;;;5105310;28;20390;-73
2022/03/30 11:19:22;;;;;;;16.58;8.40;;;13.20;92.60;;;;;;5098617;28;20478;-73
2022/03/30 11:22:08;;;;;;;15.02;9.05;;;13.60;92.20;;;;;;5090098;28;20497;-74
2022/03/30 11:24:33;;;;;;;15.40;8.68;;;14.00;92.40;;;;;;5083106;28;20047;-75
2022/03/30 11:34:57;;;;;;;21.55;9.38;;;14.80;92.50;;;;;;5111010;27;1151927;-74
2022/03/30 11:37:45;;;;;;;16.00;9.10;;;12.50;96.50;;;;;;5130661;27;20028;-72
2022/03/30 11:40:14;;;;;;;17.75;9.60;;;13.30;95.90;;;;;;5129336;28;20481;-72
2022/03/30 11:42:42;;;;;;;17.52;8.93;;;13.80;94.40;;;;;;5130308;27;20023;-72
2022/03/30 11:45:14;;;;;;;14.18;7.97;;;13.70;93.20;;;;;;5112729;28;20036;-72
2022/03/30 11:47:44;;;;;;;15.50;9.68;;;13.60;93.80;;;;;;5093852;28;20374;-72
2022/03/30 11:50:12;;;;;;;24.40;9.13;;;13.10;94.30;;;;;;5103793;28;20032;-73
2022/03/30 11:52:39;;;;;;;17.75;8.65;;;13.20;94.60;;;;;;5128502;28;20050;-72
2022/03/30 11:55:05;;;;;;;20.45;9.40;;;13.40;94.10;;;;;;5105031;28;20023;-72
2022/03/30 11:57:36;;;;;;;20.45;8.73;;;13.10;94.50;;;;;;5117376;27;20023;-72
2022/03/30 12:00:09;;;;;;;25.45;9.38;;;12.70;95.40;;;;;;5129934;28;20027;-73
2022/03/30 12:02:34;;;;;;;17.02;9.18;;;12.70;96.30;;;;;;5112836;28;20458;-71
2022/03/30 12:05:00;;;;;;;16.88;9.40;;;13.60;95.30;;;;;;5108996;28;20035;-71
2022/03/30 12:07:25;;;;;;;15.05;8.45;;;13.80;93.50;;;;;;5113998;28;20114;-71
2022/03/30 12:09:53;;;;;;;19.05;9.05;;;13.70;94.40;;;;;;5129296;28;20477;-71
2022/03/30 12:12:35;;;;;;;15.52;8.60;;;13.30;93.80;;;;;;5130619;27;20034;-73
2022/03/30 12:15:05;;;;;;;12.52;8.07;;;13.00;94.70;;;;;;5093787;28;20023;-72
2022/03/30 12:17:32;;;;;;;17.30;9.30;;;13.10;94.80;;;;;;5119464;28;20032;-73
2022/03/30 12:20:00;;;;;;;17.88;8.73;;;13.40;95.20;;;;;;5116903;28;20396;-73
2022/03/30 12:22:25;;;;;;;17.13;8.60;;;13.50;94.00;;;;;;5120294;27;20024;-72
2022/03/30 12:24:52;;;;;;;18.33;8.90;;;14.30;94.90;;;;;;5102886;28;20122;-71
2022/03/30 12:27:17;;;;;;;15.23;8.30;;;13.70;93.60;;;;;;5113985;28;20028;-72
2022/03/30 12:29:45;;;;;;;14.43;8.10;;;13.20;94.70;;;;;;5113467;28;20031;-71
2022/03/30 12:32:15;;;;;;;16.48;8.73;;;12.80;95.00;;;;;;5122613;28;20119;-71
2022/03/30 12:34:41;;;;;;;15.18;8.63;;;13.60;95.20;;;;;;5121140;28;20039;-71
2022/03/30 12:37:09;;;;;;;14.43;7.68;;;14.40;92.50;;;;;;5118134;28;20339;-73
2022/03/30 12:39:39;;;;;;;15.13;7.85;;;14.50;93.60;;;;;;5111794;28;20066;-71
2022/03/30 12:42:07;;;;;;;15.50;8.43;;;14.10;92.70;;;;;;5128505;28;20016;-71
2022/03/30 12:44:38;;;;;;;15.38;8.80;;;13.60;93.40;;;;;;5125577;27;20031;-73
2022/03/30 12:47:05;;;;;;;12.13;7.82;;;13.50;93.80;;;;;;5115746;28;20065;-74
2022/03/30 12:49:34;;;;;;;18.23;8.45;;;12.60;93.70;;;;;;5114837;28;20024;-74
2022/03/30 12:52:06;;;;;;;16.00;9.35;;;11.90;95.90;;;;;;5106040;28;20058;-73
2022/03/30 12:54:31;;;;;;;18.23;9.30;;;12.10;96.50;;;;;;5115586;28;20028;-73
2022/03/30 12:56:57;;;;;;;17.58;8.52;;;12.40;95.50;;;;;;5108455;28;20033;-74
2022/03/30 12:59:24;;;;;;;15.98;9.15;;;12.70;95.50;;;;;;5112632;28;20084;-74
2022/03/30 13:01:51;;;;;;;20.75;10.00;;;12.60;96.00;;;;;;5066507;28;20432;-73
2022/03/30 13:04:28;;;;;;;19.10;9.13;;;13.00;96.00;;;;;;5094428;28;20394;-72
2022/03/30 13:07:12;;;;;;;16.05;8.40;;;13.70;94.80;;;;;;5112282;28;20097;-76
2022/03/30 13:09:40;;;;;;;19.75;9.60;;;14.00;92.80;;;;;;5110687;28;20148;-72
2022/03/30 13:12:06;;;;;;;20.10;8.90;;;13.70;93.20;;;;;;5101465;28;20028;-73
2022/03/30 13:14:32;;;;;;;16.40;9.10;;;13.30;94.70;;;;;;5085989;28;20027;-73
2022/03/30 13:17:06;;;;;;;15.40;8.93;;;13.60;94.00;;;;;;5111701;28;20030;-73
2022/03/30 13:19:31;;;;;;;16.85;8.85;;;13.50;93.50;;;;;;5096989;28;20023;-73
2022/03/30 13:21:58;;;;;;;17.35;8.55;;;13.70;94.20;;;;;;5115096;28;20540;-75
2022/03/30 13:24:27;;;;;;;17.50;9.65;;;14.00;91.70;;;;;;5098148;28;20019;-74
2022/03/30 13:26:57;;;;;;;17.13;9.48;;;13.70;92.40;;;;;;5110530;28;20386;-74
2022/03/30 13:29:23;;;;;;;16.70;9.18;;;13.80;92.00;;;;;;5099636;28;20020;-73
2022/03/30 13:31:49;;;;;;;16.15;9.30;;;13.40;92.40;;;;;;5111848;28;20503;-74
2022/03/30 13:34:17;;;;;;;15.65;8.95;;;12.90;93.30;;;;;;5087847;28;20119;-75
2022/03/30 13:36:43;;;;;;;15.35;9.15;;;12.20;94.90;;;;;;5112188;28;20035;-75
2022/03/30 13:39:09;;;;;;;15.70;9.15;;;12.30;96.10;;;;;;5119423;28;20028;-74
2022/03/30 13:41:35;;;;;;;15.95;8.93;;;12.40;96.20;;;;;;5111148;28;20110;-75